Time,TemperatureF,DewpointF,PressureIn,WindDirection,WindDirectionDegrees,WindSpeedMPH,WindSpeedGustMPH,Humidity,HourlyPrecipIn,Conditions,Clouds,dailyrainin,SoftwareType,DateUTC
2013-01-31 00:03:00,16.0,4.6,28.76,West,262,0.0,3.6,60,0.00,,SCT044,0.00,VWS V14.01,2013-01-31 06:03:00,
2013-01-31 00:08:00,15.8,4.4,28.76,WSW,258,4.5,5.8,60,0.00,,SCT044,0.00,VWS V14.01,2013-01-31 06:08:00,
2013-01-31 00:13:00,15.8,4.8,28.76,WSW,250,0.0,4.9,61,0.00,,SCT044,0.00,VWS V14.01,2013-01-31 06:13:00,
2013-01-31 00:18:00,15.6,4.6,28.79,WSW,241,8.1,8.7,61,0.00,,SCT044,0.00,VWS V14.01,2013-01-31 06:18:00,
2013-01-31 00:23:00,15.4,4.4,28.79,WSW,244,0.0,5.8,61,0.00,,SCT044,0.00,VWS V14.01,2013-01-31 06:23:00,
2013-01-31 00:28:00,15.4,4.4,28.79,SW,235,5.4,8.1,61,0.00,,SCT044,0.00,VWS V14.01,2013-01-31 06:28:00,
2013-01-31 00:33:00,15.3,4.2,28.79,WSW,243,6.7,8.7,61,0.00,,SCT044,0.00,VWS V14.01,2013-01-31 06:33:00,
2013-01-31 00:38:00,15.3,4.2,28.79,West,280,7.6,7.6,61,0.00,,SCT044,0.00,VWS V14.01,2013-01-31 06:38:00,
2013-01-31 00:43:00,15.3,4.2,28.79,WSW,257,5.8,5.8,61,0.00,,SCT044,0.00,VWS V14.01,2013-01-31 06:43:00,
2013-01-31 00:48:00,15.1,4.1,28.79,WSW,257,3.1,10.5,61,0.00,,SCT044,0.00,VWS V14.01,2013-01-31 06:48:00,
2013-01-31 00:53:00,14.9,3.9,28.79,WSW,242,4.0,7.2,61,0.00,,SCT044,0.00,VWS V14.01,2013-01-31 06:53:00,
2013-01-31 00:58:00,14.7,3.4,28.79,West,274,0.0,11.0,60,0.00,,SCT044,0.00,VWS V14.01,2013-01-31 06:58:00,
2013-01-31 01:03:00,14.5,3.2,28.79,WSW,241,5.8,8.3,60,0.00,,SCT044,0.00,VWS V14.01,2013-01-31 07:03:00,
2013-01-31 01:08:00,14.4,3.0,28.79,SW,229,6.3,8.3,60,0.00,,SCT044,0.00,VWS V14.01,2013-01-31 07:08:00,
2013-01-31 01:13:00,14.4,3.0,28.79,WSW,254,5.4,8.3,60,0.00,,SCT044,0.00,VWS V14.01,2013-01-31 07:13:00,
2013-01-31 01:18:00,14.4,3.0,28.79,WSW,254,4.0,5.4,60,0.00,,SCT044,0.00,VWS V14.01,2013-01-31 07:18:00,
2013-01-31 01:23:00,14.2,2.9,28.79,WSW,249,5.4,8.3,60,0.00,,SCT044,0.00,VWS V14.01,2013-01-31 07:23:00,
2013-01-31 01:28:00,14.2,2.5,28.79,WSW,255,5.4,5.4,59,0.00,,SCT044,0.00,VWS V14.01,2013-01-31 07:28:00,
2013-01-31 01:33:00,13.8,2.2,28.79,WSW,257,8.1,10.1,59,0.00,,SCT044,0.00,VWS V14.01,2013-01-31 07:33:00,
2013-01-31 01:38:00,13.6,2.0,28.79,SW,231,3.6,6.3,59,0.00,,SCT044,0.00,VWS V14.01,2013-01-31 07:38:00,
2013-01-31 01:43:00,13.6,2.0,28.82,WSW,247,7.6,7.6,59,0.00,,SCT044,0.00,VWS V14.01,2013-01-31 07:43:00,
2013-01-31 01:48:00,13.5,1.8,28.82,WSW,249,3.1,4.9,59,0.00,,SCT044,0.00,VWS V14.01,2013-01-31 07:48:00,
2013-01-31 01:53:00,13.5,1.8,28.82,WSW,255,4.0,4.0,59,0.00,,SCT044,0.00,VWS V14.01,2013-01-31 07:53:00,
2013-01-31 01:58:00,13.3,1.6,28.79,SW,236,4.0,8.3,59,0.00,,SCT044,0.00,VWS V14.01,2013-01-31 07:58:00,
2013-01-31 02:03:00,13.1,1.5,28.79,WSW,248,4.9,10.5,59,0.00,,,0.00,VWS V14.01,2013-01-31 08:03:00,
2013-01-31 02:08:00,13.1,1.5,28.79,WSW,245,5.4,5.4,59,0.00,,,0.00,VWS V14.01,2013-01-31 08:08:00,
2013-01-31 02:13:00,12.9,1.3,28.82,WSW,240,0.0,4.9,59,0.00,,,0.00,VWS V14.01,2013-01-31 08:13:00,
2013-01-31 02:18:00,12.9,1.3,28.82,WSW,237,3.6,3.6,59,0.00,,,0.00,VWS V14.01,2013-01-31 08:18:00,
2013-01-31 02:23:00,12.7,1.1,28.82,WSW,250,2.7,6.3,59,0.00,,,0.00,VWS V14.01,2013-01-31 08:23:00,
2013-01-31 02:28:00,12.7,1.1,28.82,WSW,256,3.6,6.3,59,0.00,,,0.00,VWS V14.01,2013-01-31 08:28:00,
2013-01-31 02:33:00,12.7,1.1,28.82,WSW,246,6.3,6.3,59,0.00,,,0.00,VWS V14.01,2013-01-31 08:33:00,
2013-01-31 02:38:00,12.6,1.0,28.82,SW,235,2.7,5.4,59,0.00,,,0.00,VWS V14.01,2013-01-31 08:38:00,
2013-01-31 02:43:00,12.6,1.0,28.82,WSW,256,8.7,8.7,59,0.00,,,0.00,VWS V14.01,2013-01-31 08:43:00,
2013-01-31 02:48:00,12.6,1.0,28.82,WSW,251,8.7,8.7,59,0.00,,,0.00,VWS V14.01,2013-01-31 08:48:00,
2013-01-31 02:54:00,12.6,1.0,28.82,WSW,250,4.0,7.2,59,0.00,,,0.00,VWS V14.01,2013-01-31 08:54:00,
2013-01-31 02:59:00,12.0,0.4,28.82,West,265,10.5,12.3,59,0.00,,,0.00,VWS V14.01,2013-01-31 08:59:00,
2013-01-31 03:04:00,12.0,0.4,28.82,SW,236,7.6,11.0,59,0.00,,,0.00,VWS V14.01,2013-01-31 09:04:00,
2013-01-31 03:09:00,11.8,0.3,28.82,WSW,253,2.7,8.1,59,0.00,,,0.00,VWS V14.01,2013-01-31 09:09:00,
2013-01-31 03:14:00,11.7,0.1,28.82,WSW,251,6.7,10.5,59,0.00,,,0.00,VWS V14.01,2013-01-31 09:14:00,
2013-01-31 03:19:00,11.7,0.1,28.82,WSW,253,5.4,5.4,59,0.00,,,0.00,VWS V14.01,2013-01-31 09:19:00,
2013-01-31 03:24:00,11.5,-0.1,28.82,West,264,8.1,8.1,59,0.00,,,0.00,VWS V14.01,2013-01-31 09:24:00,
2013-01-31 03:29:00,11.3,-0.2,28.82,WSW,247,5.4,5.4,59,0.00,,,0.00,VWS V14.01,2013-01-31 09:29:00,
2013-01-31 03:34:00,11.1,-0.4,28.82,WSW,248,8.1,8.1,59,0.00,,,0.00,VWS V14.01,2013-01-31 09:34:00,
2013-01-31 03:39:00,11.1,-0.4,28.82,SW,218,2.2,2.2,59,0.00,,,0.00,VWS V14.01,2013-01-31 09:39:00,
2013-01-31 03:44:00,11.3,-0.2,28.82,WSW,248,0.0,0.0,59,0.00,,,0.00,VWS V14.01,2013-01-31 09:44:00,
2013-01-31 03:49:00,11.1,-0.4,28.82,WSW,239,0.0,3.1,59,0.00,,,0.00,VWS V14.01,2013-01-31 09:49:00,
2013-01-31 03:54:00,10.9,-0.6,28.82,WSW,251,0.0,2.2,59,0.00,,,0.00,VWS V14.01,2013-01-31 09:54:00,
2013-01-31 03:59:00,10.9,-0.6,28.82,West,263,5.4,6.3,59,0.00,,,0.00,VWS V14.01,2013-01-31 09:59:00,
2013-01-31 04:04:00,10.8,-0.7,28.82,WSW,254,4.0,4.0,59,0.00,,CLR,0.00,VWS V14.01,2013-01-31 10:04:00,
2013-01-31 04:09:00,10.8,-0.7,28.82,SW,232,0.0,8.1,59,0.00,,CLR,0.00,VWS V14.01,2013-01-31 10:09:00,
2013-01-31 04:14:00,10.8,-0.7,28.82,SW,232,3.6,5.8,59,0.00,,CLR,0.00,VWS V14.01,2013-01-31 10:14:00,
2013-01-31 04:19:00,10.8,-0.7,28.82,WSW,239,0.0,2.7,59,0.00,,CLR,0.00,VWS V14.01,2013-01-31 10:19:00,
2013-01-31 04:25:00,10.6,-0.9,28.82,WSW,250,3.1,6.7,59,0.00,,CLR,0.00,VWS V14.01,2013-01-31 10:25:00,
2013-01-31 04:30:00,10.8,-0.7,28.82,SW,230,3.1,3.1,59,0.00,,CLR,0.00,VWS V14.01,2013-01-31 10:30:00,
2013-01-31 04:35:00,10.8,-0.7,28.82,West,269,7.6,7.6,59,0.00,,CLR,0.00,VWS V14.01,2013-01-31 10:35:00,
2013-01-31 04:40:00,10.6,-0.9,28.82,WSW,246,2.7,5.4,59,0.00,,CLR,0.00,VWS V14.01,2013-01-31 10:40:00,
2013-01-31 04:45:00,10.4,-1.1,28.82,West,276,3.6,5.8,59,0.00,,CLR,0.00,VWS V14.01,2013-01-31 10:45:00,
2013-01-31 04:50:00,10.4,-1.1,28.82,WSW,248,3.1,4.0,59,0.00,,CLR,0.00,VWS V14.01,2013-01-31 10:50:00,
2013-01-31 04:55:00,10.0,-1.4,28.82,West,265,3.6,3.6,59,0.00,,CLR,0.00,VWS V14.01,2013-01-31 10:55:00,
2013-01-31 05:00:00,9.9,-1.6,28.82,West,262,5.4,6.3,59,0.00,,CLR,0.00,VWS V14.01,2013-01-31 11:00:00,
2013-01-31 05:05:00,9.5,-1.9,28.82,West,259,4.9,8.1,59,0.00,,CLR,0.00,VWS V14.01,2013-01-31 11:05:00,
2013-01-31 05:10:00,9.3,-2.1,28.82,West,263,0.0,5.4,59,0.00,,CLR,0.00,VWS V14.01,2013-01-31 11:10:00,
2013-01-31 05:15:00,9.1,-2.3,28.85,West,265,4.9,6.3,59,0.00,,CLR,0.00,VWS V14.01,2013-01-31 11:15:00,
2013-01-31 05:20:00,9.1,-2.3,28.85,SW,232,10.1,11.9,59,0.00,,CLR,0.00,VWS V14.01,2013-01-31 11:20:00,
2013-01-31 05:25:00,8.8,-2.6,28.85,WSW,256,12.8,12.8,59,0.00,,CLR,0.00,VWS V14.01,2013-01-31 11:25:00,
2013-01-31 05:30:00,8.6,-2.8,28.85,West,261,10.5,15.0,59,0.00,,CLR,0.00,VWS V14.01,2013-01-31 11:30:00,
2013-01-31 05:35:00,8.4,-3.0,28.85,West,275,12.3,12.3,59,0.00,,CLR,0.00,VWS V14.01,2013-01-31 11:35:00,
2013-01-31 05:40:00,8.1,-3.3,28.85,WNW,284,14.1,14.1,59,0.00,,CLR,0.00,VWS V14.01,2013-01-31 11:40:00,
2013-01-31 05:45:00,7.9,-3.5,28.85,West,261,5.8,8.1,59,0.00,,CLR,0.00,VWS V14.01,2013-01-31 11:45:00,
2013-01-31 05:50:00,7.9,-3.5,28.85,WSW,237,4.9,6.3,59,0.00,,CLR,0.00,VWS V14.01,2013-01-31 11:50:00,
2013-01-31 05:56:00,7.7,-3.6,28.85,WSW,253,0.0,8.1,59,0.00,,CLR,0.00,VWS V14.01,2013-01-31 11:56:00,
2013-01-31 06:01:00,7.7,-3.6,28.85,WSW,251,8.3,10.1,59,0.00,,CLR,0.00,VWS V14.01,2013-01-31 12:01:00,
2013-01-31 06:06:00,7.7,-3.6,28.85,West,273,3.1,6.3,59,0.00,,CLR,0.00,VWS V14.01,2013-01-31 12:06:00,
2013-01-31 06:11:00,7.7,-3.6,28.85,West,265,7.6,8.3,59,0.00,,CLR,0.00,VWS V14.01,2013-01-31 12:11:00,
2013-01-31 06:16:00,7.5,-3.8,28.85,WSW,249,6.7,6.7,59,0.00,,CLR,0.00,VWS V14.01,2013-01-31 12:16:00,
2013-01-31 06:21:00,7.5,-3.8,28.85,WSW,254,8.3,8.3,59,0.00,,CLR,0.00,VWS V14.01,2013-01-31 12:21:00,
2013-01-31 06:26:00,7.3,-4.0,28.85,West,268,5.8,5.8,59,0.00,,CLR,0.00,VWS V14.01,2013-01-31 12:26:00,
2013-01-31 06:31:00,7.2,-4.1,28.85,WNW,289,10.1,10.1,59,0.00,,CLR,0.00,VWS V14.01,2013-01-31 12:31:00,
2013-01-31 06:36:00,7.2,-4.1,28.85,WNW,286,8.7,12.3,59,0.00,,CLR,0.00,VWS V14.01,2013-01-31 12:36:00,
2013-01-31 06:41:00,7.2,-4.1,28.85,West,264,8.7,12.8,59,0.00,,CLR,0.00,VWS V14.01,2013-01-31 12:41:00,
2013-01-31 06:46:00,7.0,-4.3,28.88,West,271,8.3,10.5,59,0.00,,CLR,0.00,VWS V14.01,2013-01-31 12:46:00,
2013-01-31 06:51:00,7.0,-4.3,28.88,West,268,10.5,14.1,59,0.00,,CLR,0.00,VWS V14.01,2013-01-31 12:51:00,
2013-01-31 06:56:00,7.0,-4.3,28.88,West,265,8.1,12.3,59,0.00,,CLR,0.00,VWS V14.01,2013-01-31 12:56:00,
2013-01-31 07:01:00,6.8,-4.5,28.88,West,270,8.3,8.3,59,0.00,,CLR,0.00,VWS V14.01,2013-01-31 13:01:00,
2013-01-31 07:07:00,6.8,-4.5,28.88,West,259,10.1,13.2,59,0.00,,CLR,0.00,VWS V14.01,2013-01-31 13:07:00,
2013-01-31 07:12:00,6.4,-4.8,28.88,West,268,8.3,9.6,59,0.00,,CLR,0.00,VWS V14.01,2013-01-31 13:12:00,
2013-01-31 07:17:00,6.4,-4.8,28.88,West,276,7.6,7.6,59,0.00,,CLR,0.00,VWS V14.01,2013-01-31 13:17:00,
2013-01-31 07:22:00,6.3,-5.0,28.88,WSW,255,7.6,7.6,59,0.00,,CLR,0.00,VWS V14.01,2013-01-31 13:22:00,
2013-01-31 07:27:00,6.3,-5.0,28.88,WSW,254,9.6,9.6,59,0.00,,CLR,0.00,VWS V14.01,2013-01-31 13:27:00,
2013-01-31 07:32:00,6.3,-5.0,28.88,West,272,5.8,8.3,59,0.00,,CLR,0.00,VWS V14.01,2013-01-31 13:32:00,
2013-01-31 07:37:00,6.3,-5.0,28.88,WSW,252,7.6,8.1,59,0.00,,CLR,0.00,VWS V14.01,2013-01-31 13:37:00,
2013-01-31 07:42:00,6.3,-5.0,28.88,West,273,8.7,8.7,59,0.00,,CLR,0.00,VWS V14.01,2013-01-31 13:42:00,
2013-01-31 07:47:00,6.1,-5.2,28.91,WSW,257,8.7,8.7,59,0.00,,CLR,0.00,VWS V14.01,2013-01-31 13:47:00,
2013-01-31 07:52:00,6.1,-5.2,28.91,WSW,256,10.1,11.0,59,0.00,,CLR,0.00,VWS V14.01,2013-01-31 13:52:00,
2013-01-31 07:57:00,5.9,-5.3,28.91,West,268,6.3,12.3,59,0.00,,CLR,0.00,VWS V14.01,2013-01-31 13:57:00,
2013-01-31 08:02:00,5.9,-5.3,28.91,WNW,293,15.4,15.4,59,0.00,,OVC180,0.00,VWS V14.01,2013-01-31 14:02:00,
2013-01-31 08:07:00,5.7,-5.5,28.91,West,260,6.3,6.3,59,0.00,,OVC180,0.00,VWS V14.01,2013-01-31 14:07:00,
2013-01-31 08:12:00,5.9,-5.3,28.91,West,270,11.0,11.0,59,0.00,,OVC180,0.00,VWS V14.01,2013-01-31 14:12:00,
2013-01-31 08:17:00,5.9,-5.3,28.91,West,267,6.3,8.3,59,0.00,,OVC180,0.00,VWS V14.01,2013-01-31 14:17:00,
2013-01-31 08:22:00,5.9,-5.3,28.91,WSW,252,5.4,8.1,59,0.00,,OVC180,0.00,VWS V14.01,2013-01-31 14:22:00,
2013-01-31 08:27:00,5.9,-5.3,28.91,West,277,5.8,8.1,59,0.00,,OVC180,0.00,VWS V14.01,2013-01-31 14:27:00,
2013-01-31 08:33:00,5.9,-5.3,28.91,WSW,258,6.7,8.3,59,0.00,,OVC180,0.00,VWS V14.01,2013-01-31 14:33:00,
2013-01-31 08:38:00,5.9,-5.3,28.91,West,265,11.0,11.9,59,0.00,,OVC180,0.00,VWS V14.01,2013-01-31 14:38:00,
2013-01-31 08:43:00,5.9,-5.3,28.91,WNW,284,10.5,10.5,59,0.00,,OVC180,0.00,VWS V14.01,2013-01-31 14:43:00,
2013-01-31 08:48:00,6.1,-5.2,28.94,West,270,10.1,10.1,59,0.00,,OVC180,0.00,VWS V14.01,2013-01-31 14:48:00,
2013-01-31 08:53:00,5.9,-5.3,28.94,West,270,8.1,8.3,59,0.00,,OVC180,0.00,VWS V14.01,2013-01-31 14:53:00,
2013-01-31 08:58:00,5.9,-5.3,28.94,WNW,283,5.4,7.6,59,0.00,,OVC180,0.00,VWS V14.01,2013-01-31 14:58:00,
2013-01-31 09:03:00,5.9,-5.3,28.94,West,273,8.1,8.7,59,0.00,,OVC180,0.00,VWS V14.01,2013-01-31 15:03:00,
2013-01-31 09:08:00,5.9,-5.3,28.94,West,270,12.3,12.3,59,0.00,,OVC180,0.00,VWS V14.01,2013-01-31 15:08:00,
2013-01-31 09:13:00,5.9,-5.3,28.94,West,269,5.8,10.5,59,0.00,,OVC180,0.00,VWS V14.01,2013-01-31 15:13:00,
2013-01-31 09:18:00,6.1,-5.2,28.94,West,269,7.6,10.5,59,0.00,,OVC180,0.00,VWS V14.01,2013-01-31 15:18:00,
2013-01-31 09:23:00,6.1,-5.2,28.94,West,277,0.0,7.2,59,0.00,,OVC180,0.00,VWS V14.01,2013-01-31 15:23:00,
2013-01-31 09:28:00,6.3,-5.0,28.97,WNW,287,8.1,13.2,59,0.00,,OVC180,0.00,VWS V14.01,2013-01-31 15:28:00,
2013-01-31 09:33:00,6.3,-5.0,28.97,West,268,8.1,10.1,59,0.00,,OVC180,0.00,VWS V14.01,2013-01-31 15:33:00,
2013-01-31 09:39:00,6.4,-4.8,28.97,West,264,6.3,13.2,59,0.00,,OVC180,0.00,VWS V14.01,2013-01-31 15:39:00,
2013-01-31 09:44:00,6.6,-4.7,28.97,West,266,8.3,8.3,59,0.00,,OVC180,0.00,VWS V14.01,2013-01-31 15:44:00,
2013-01-31 09:49:00,7.0,-4.3,28.97,West,276,9.6,9.6,59,0.00,,OVC180,0.00,VWS V14.01,2013-01-31 15:49:00,
2013-01-31 09:54:00,7.0,-4.3,28.97,West,261,10.5,10.5,59,0.00,,OVC180,0.00,VWS V14.01,2013-01-31 15:54:00,
2013-01-31 09:59:00,7.0,-4.3,28.97,WNW,282,4.0,7.2,59,0.00,,OVC180,0.00,VWS V14.01,2013-01-31 15:59:00,
2013-01-31 10:04:00,7.2,-4.1,28.97,WNW,301,6.3,10.1,59,0.00,,,0.00,VWS V14.01,2013-01-31 16:04:00,
2013-01-31 10:09:00,7.0,-4.3,28.97,West,280,5.8,5.8,59,0.00,,,0.00,VWS V14.01,2013-01-31 16:09:00,
2013-01-31 10:14:00,7.2,-4.1,29.00,West,267,11.0,11.0,59,0.00,,,0.00,VWS V14.01,2013-01-31 16:14:00,
2013-01-31 10:19:00,7.2,-4.1,29.00,WNW,288,8.3,8.3,59,0.00,,,0.00,VWS V14.01,2013-01-31 16:19:00,
2013-01-31 10:24:00,7.3,-4.0,29.00,West,264,6.3,10.1,59,0.00,,,0.00,VWS V14.01,2013-01-31 16:24:00,
2013-01-31 10:29:00,7.7,-3.6,29.00,West,276,11.0,11.0,59,0.00,,,0.00,VWS V14.01,2013-01-31 16:29:00,
2013-01-31 10:34:00,7.5,-3.8,29.00,West,267,8.1,10.5,59,0.00,,,0.00,VWS V14.01,2013-01-31 16:34:00,
2013-01-31 10:39:00,7.7,-3.6,29.00,West,270,11.0,13.2,59,0.00,,,0.00,VWS V14.01,2013-01-31 16:39:00,
2013-01-31 10:44:00,7.7,-3.6,29.00,WSW,241,11.0,13.2,59,0.00,,,0.00,VWS V14.01,2013-01-31 16:44:00,
2013-01-31 10:49:00,7.9,-3.5,29.00,West,271,15.9,15.9,59,0.00,,,0.00,VWS V14.01,2013-01-31 16:49:00,
2013-01-31 10:54:00,7.7,-3.6,29.00,WSW,238,10.1,10.1,59,0.00,,,0.00,VWS V14.01,2013-01-31 16:54:00,
2013-01-31 10:59:00,7.7,-3.6,29.03,West,273,8.1,8.3,59,0.00,,,0.00,VWS V14.01,2013-01-31 16:59:00,
2013-01-31 11:04:00,7.7,-3.6,29.03,West,279,10.5,14.1,59,0.00,,,0.00,VWS V14.01,2013-01-31 17:04:00,
2013-01-31 11:10:00,7.7,-3.6,29.03,West,275,5.4,8.7,59,0.00,,,0.00,VWS V14.01,2013-01-31 17:10:00,
2013-01-31 11:15:00,8.1,-3.3,29.03,WSW,245,12.8,12.8,59,0.00,,,0.00,VWS V14.01,2013-01-31 17:15:00,
2013-01-31 11:20:00,8.4,-3.0,29.03,WNW,291,8.1,10.5,59,0.00,,,0.00,VWS V14.01,2013-01-31 17:20:00,
2013-01-31 11:25:00,8.2,-3.1,29.03,West,265,6.3,10.5,59,0.00,,,0.00,VWS V14.01,2013-01-31 17:25:00,
2013-01-31 11:30:00,8.1,-3.3,29.03,West,280,11.0,11.0,59,0.00,,,0.00,VWS V14.01,2013-01-31 17:30:00,
2013-01-31 11:35:00,8.1,-3.3,29.03,West,261,10.1,12.8,59,0.00,,,0.00,VWS V14.01,2013-01-31 17:35:00,
2013-01-31 11:40:00,8.4,-3.0,29.03,West,262,5.4,8.3,59,0.00,,,0.00,VWS V14.01,2013-01-31 17:40:00,
2013-01-31 11:45:00,8.4,-3.0,29.06,West,261,11.4,13.2,59,0.00,,,0.00,VWS V14.01,2013-01-31 17:45:00,
2013-01-31 11:50:00,8.6,-2.8,29.06,West,261,10.5,10.5,59,0.00,,,0.00,VWS V14.01,2013-01-31 17:50:00,
2013-01-31 11:55:00,8.8,-2.6,29.06,WSW,239,11.0,17.4,59,0.00,,,0.00,VWS V14.01,2013-01-31 17:55:00,
2013-01-31 12:00:00,8.6,-2.8,29.06,WSW,257,10.5,12.8,59,0.00,,,0.00,VWS V14.01,2013-01-31 18:00:00,
2013-01-31 12:05:00,8.6,-2.8,29.06,West,273,6.3,14.5,59,0.00,,,0.00,VWS V14.01,2013-01-31 18:05:00,
2013-01-31 12:10:00,8.6,-2.8,29.06,West,260,8.1,8.3,59,0.00,,,0.00,VWS V14.01,2013-01-31 18:10:00,
2013-01-31 12:15:00,8.6,-2.8,29.06,WSW,257,11.4,11.4,59,0.00,,,0.00,VWS V14.01,2013-01-31 18:15:00,
2013-01-31 12:20:00,8.6,-2.8,29.06,WSW,257,8.3,11.4,59,0.00,,,0.00,VWS V14.01,2013-01-31 18:20:00,
2013-01-31 12:25:00,8.8,-2.6,29.06,WSW,247,8.7,15.0,59,0.00,,,0.00,VWS V14.01,2013-01-31 18:25:00,
2013-01-31 12:30:00,8.8,-2.6,29.06,West,270,12.3,14.1,59,0.00,,,0.00,VWS V14.01,2013-01-31 18:30:00,
2013-01-31 12:35:00,8.8,-2.6,29.06,WSW,245,10.5,12.3,59,0.00,,,0.00,VWS V14.01,2013-01-31 18:35:00,
2013-01-31 12:40:00,8.8,-2.6,29.06,West,267,8.3,10.5,59,0.00,,,0.00,VWS V14.01,2013-01-31 18:40:00,
2013-01-31 12:45:00,8.8,-2.6,29.06,WSW,256,10.1,10.1,59,0.00,,,0.00,VWS V14.01,2013-01-31 18:45:00,
2013-01-31 12:50:00,8.8,-2.6,29.06,WSW,252,12.3,12.3,59,0.00,,,0.00,VWS V14.01,2013-01-31 18:50:00,
2013-01-31 12:55:00,8.8,-2.6,29.06,WSW,245,14.1,17.0,59,0.00,,,0.00,VWS V14.01,2013-01-31 18:55:00,
2013-01-31 13:00:00,8.8,-2.6,29.06,WSW,250,7.6,8.1,59,0.00,,,0.00,VWS V14.01,2013-01-31 19:00:00,
2013-01-31 13:05:00,8.8,-2.6,29.06,WSW,253,13.2,13.2,59,0.00,,,0.00,VWS V14.01,2013-01-31 19:05:00,
2013-01-31 13:10:00,9.1,-2.3,29.06,West,279,11.0,15.4,59,0.00,,,0.00,VWS V14.01,2013-01-31 19:10:00,
2013-01-31 13:15:00,9.0,-2.4,29.06,West,262,9.2,10.5,59,0.00,,,0.00,VWS V14.01,2013-01-31 19:15:00,
2013-01-31 13:20:00,9.1,-2.3,29.06,West,260,10.5,10.5,59,0.00,,,0.00,VWS V14.01,2013-01-31 19:20:00,
2013-01-31 13:26:00,8.8,-2.6,29.06,West,279,15.9,15.9,59,0.00,,,0.00,VWS V14.01,2013-01-31 19:26:00,
2013-01-31 13:31:00,8.6,-2.8,29.06,WSW,254,16.8,16.8,59,0.00,,,0.00,VWS V14.01,2013-01-31 19:31:00,
2013-01-31 13:36:00,8.6,-2.8,29.06,West,276,6.3,12.8,59,0.00,,,0.00,VWS V14.01,2013-01-31 19:36:00,
2013-01-31 13:41:00,8.8,-2.6,29.06,WSW,256,12.8,13.2,59,0.00,,,0.00,VWS V14.01,2013-01-31 19:41:00,
2013-01-31 13:46:00,8.8,-2.6,29.06,West,259,8.7,13.2,59,0.00,,,0.00,VWS V14.01,2013-01-31 19:46:00,
2013-01-31 13:51:00,8.6,-2.8,29.06,West,268,12.8,17.4,59,0.00,,,0.00,VWS V14.01,2013-01-31 19:51:00,
2013-01-31 13:56:00,8.4,-3.0,29.06,WSW,238,12.3,13.2,59,0.00,,,0.00,VWS V14.01,2013-01-31 19:56:00,
2013-01-31 14:01:00,8.2,-3.1,29.06,West,271,10.5,10.5,59,0.00,,,0.00,VWS V14.01,2013-01-31 20:01:00,
2013-01-31 14:06:00,8.4,-3.0,29.06,WSW,242,10.1,11.0,59,0.00,,,0.00,VWS V14.01,2013-01-31 20:06:00,
2013-01-31 14:11:00,8.4,-3.0,29.06,West,260,13.2,17.9,59,0.00,,,0.00,VWS V14.01,2013-01-31 20:11:00,
2013-01-31 14:16:00,8.1,-3.3,29.06,West,262,12.8,12.8,59,0.00,,,0.00,VWS V14.01,2013-01-31 20:16:00,
2013-01-31 14:21:00,8.1,-3.3,29.06,West,268,11.0,15.0,59,0.00,,,0.00,VWS V14.01,2013-01-31 20:21:00,
2013-01-31 14:26:00,7.9,-3.5,29.06,West,265,8.3,14.1,59,0.00,,,0.00,VWS V14.01,2013-01-31 20:26:00,
2013-01-31 14:31:00,7.9,-3.5,29.09,West,281,10.5,14.5,59,0.00,,,0.00,VWS V14.01,2013-01-31 20:31:00,
2013-01-31 14:36:00,7.9,-3.5,29.09,WSW,252,15.4,15.9,59,0.00,,,0.00,VWS V14.01,2013-01-31 20:36:00,
2013-01-31 14:41:00,8.2,-3.1,29.09,WNW,289,13.2,18.8,59,0.00,,,0.00,VWS V14.01,2013-01-31 20:41:00,
2013-01-31 14:46:00,7.9,-3.5,29.09,West,263,15.9,17.0,59,0.00,,,0.00,VWS V14.01,2013-01-31 20:46:00,
2013-01-31 14:51:00,7.9,-3.5,29.09,West,261,15.4,15.4,59,0.00,,,0.00,VWS V14.01,2013-01-31 20:51:00,
2013-01-31 14:56:00,7.9,-3.5,29.09,West,262,7.6,13.2,59,0.00,,,0.00,VWS V14.01,2013-01-31 20:56:00,
2013-01-31 15:01:00,7.9,-3.5,29.09,WSW,256,12.8,12.8,59,0.00,,,0.00,VWS V14.01,2013-01-31 21:01:00,
2013-01-31 15:06:00,7.9,-3.5,29.09,WSW,257,15.4,19.2,59,0.00,,,0.00,VWS V14.01,2013-01-31 21:06:00,
2013-01-31 15:11:00,7.7,-3.6,29.09,West,268,13.2,15.9,59,0.00,,,0.00,VWS V14.01,2013-01-31 21:11:00,
2013-01-31 15:16:00,7.7,-3.6,29.09,West,278,10.5,13.2,59,0.00,,,0.00,VWS V14.01,2013-01-31 21:16:00,
2013-01-31 15:21:00,7.5,-3.8,29.09,West,274,10.5,13.2,59,0.00,,,0.00,VWS V14.01,2013-01-31 21:21:00,
2013-01-31 15:26:00,7.5,-3.8,29.09,West,259,12.8,19.7,59,0.00,,,0.00,VWS V14.01,2013-01-31 21:26:00,
2013-01-31 15:31:00,7.2,-4.1,29.12,West,275,17.4,18.3,59,0.00,,,0.00,VWS V14.01,2013-01-31 21:31:00,
2013-01-31 15:36:00,7.0,-4.3,29.12,WSW,257,13.6,19.7,59,0.00,,,0.00,VWS V14.01,2013-01-31 21:36:00,
2013-01-31 15:41:00,7.0,-4.3,29.12,West,261,15.4,15.4,59,0.00,,,0.00,VWS V14.01,2013-01-31 21:41:00,
2013-01-31 15:46:00,7.0,-4.3,29.12,WSW,244,10.5,12.3,59,0.00,,,0.00,VWS V14.01,2013-01-31 21:46:00,
2013-01-31 15:51:00,7.0,-4.3,29.12,West,273,11.0,15.4,59,0.00,,,0.00,VWS V14.01,2013-01-31 21:51:00,
2013-01-31 15:56:00,7.0,-4.3,29.12,West,273,15.4,15.4,59,0.00,,,0.00,VWS V14.01,2013-01-31 21:56:00,
2013-01-31 16:01:00,6.8,-4.5,29.12,WSW,252,12.8,12.8,59,0.00,,OVC035,0.00,VWS V14.01,2013-01-31 22:01:00,
2013-01-31 16:06:00,6.6,-4.7,29.12,West,260,13.2,13.2,59,0.00,,OVC035,0.00,VWS V14.01,2013-01-31 22:06:00,
2013-01-31 16:11:00,6.6,-4.7,29.12,WSW,239,17.9,17.9,59,0.00,,OVC035,0.00,VWS V14.01,2013-01-31 22:11:00,
2013-01-31 16:16:00,6.6,-4.7,29.15,West,278,10.5,13.6,59,0.00,,OVC035,0.00,VWS V14.01,2013-01-31 22:16:00,
2013-01-31 16:21:00,6.4,-4.8,29.15,WNW,295,10.5,11.9,59,0.00,,OVC035,0.00,VWS V14.01,2013-01-31 22:21:00,
2013-01-31 16:26:00,6.4,-4.8,29.15,West,268,11.9,16.3,59,0.00,,OVC035,0.00,VWS V14.01,2013-01-31 22:26:00,
2013-01-31 16:31:00,6.3,-5.0,29.15,West,267,11.0,11.0,59,0.00,,OVC035,0.00,VWS V14.01,2013-01-31 22:31:00,
2013-01-31 16:36:00,6.1,-5.2,29.15,West,268,8.3,12.3,59,0.00,,OVC035,0.00,VWS V14.01,2013-01-31 22:36:00,
2013-01-31 16:41:00,5.9,-5.3,29.15,WSW,253,11.0,11.0,59,0.00,,OVC035,0.00,VWS V14.01,2013-01-31 22:41:00,
2013-01-31 16:46:00,5.9,-5.3,29.15,West,269,9.6,11.0,59,0.00,,OVC035,0.00,VWS V14.01,2013-01-31 22:46:00,
2013-01-31 16:51:00,5.9,-5.3,29.15,West,265,11.9,15.0,59,0.00,,OVC035,0.00,VWS V14.01,2013-01-31 22:51:00,
2013-01-31 16:56:00,5.7,-5.5,29.15,West,262,12.3,13.2,59,0.00,,OVC035,0.00,VWS V14.01,2013-01-31 22:56:00,
2013-01-31 17:01:00,5.5,-5.7,29.15,WNW,289,15.4,15.4,59,0.00,,OVC035,0.00,VWS V14.01,2013-01-31 23:01:00,
2013-01-31 17:07:00,5.5,-5.7,29.15,West,264,10.5,11.0,59,0.00,,OVC035,0.00,VWS V14.01,2013-01-31 23:07:00,
2013-01-31 17:12:00,5.5,-5.7,29.15,WSW,248,15.9,15.9,59,0.00,,OVC035,0.00,VWS V14.01,2013-01-31 23:12:00,
2013-01-31 17:17:00,5.5,-5.7,29.15,WSW,257,12.8,15.0,59,0.00,,OVC035,0.00,VWS V14.01,2013-01-31 23:17:00,
2013-01-31 17:22:00,5.5,-5.7,29.15,West,268,10.5,11.0,59,0.00,,OVC035,0.00,VWS V14.01,2013-01-31 23:22:00,
2013-01-31 17:27:00,5.4,-5.8,29.15,WNW,283,8.1,10.1,59,0.00,,OVC035,0.00,VWS V14.01,2013-01-31 23:27:00,
2013-01-31 17:32:00,5.4,-5.8,29.15,WSW,258,10.1,13.2,59,0.00,,OVC035,0.00,VWS V14.01,2013-01-31 23:32:00,
2013-01-31 17:37:00,5.4,-5.8,29.15,West,272,11.0,13.2,59,0.00,,OVC035,0.00,VWS V14.01,2013-01-31 23:37:00,
2013-01-31 17:42:00,5.2,-6.0,29.15,WSW,247,6.3,6.3,59,0.00,,OVC035,0.00,VWS V14.01,2013-01-31 23:42:00,
2013-01-31 17:47:00,5.2,-6.0,29.18,WSW,250,6.3,6.3,59,0.00,,OVC035,0.00,VWS V14.01,2013-01-31 23:47:00,
2013-01-31 17:52:00,5.2,-6.0,29.18,West,260,10.1,10.1,59,0.00,,OVC035,0.00,VWS V14.01,2013-01-31 23:52:00,
2013-01-31 17:57:00,5.0,-6.2,29.18,WSW,255,12.8,12.8,59,0.00,,OVC035,0.00,VWS V14.01,2013-01-31 23:57:00,
2013-01-31 18:02:00,5.0,-6.2,29.18,West,279,11.0,11.0,59,0.00,,BKN023,0.00,VWS V14.01,2013-02-01 00:02:00,
2013-01-31 18:07:00,5.0,-6.2,29.18,WNW,284,10.1,10.5,59,0.00,,BKN023,0.00,VWS V14.01,2013-02-01 00:07:00,
2013-01-31 18:12:00,5.0,-6.2,29.18,West,268,12.3,12.3,59,0.00,,BKN023,0.00,VWS V14.01,2013-02-01 00:12:00,
2013-01-31 18:17:00,4.8,-6.3,29.18,WSW,250,5.8,13.2,59,0.00,,BKN023,0.00,VWS V14.01,2013-02-01 00:17:00,
2013-01-31 18:22:00,5.0,-6.2,29.18,WSW,258,8.3,10.1,59,0.00,,BKN023,0.00,VWS V14.01,2013-02-01 00:22:00,
2013-01-31 18:27:00,4.8,-6.3,29.18,West,269,12.3,13.2,59,0.00,,BKN023,0.00,VWS V14.01,2013-02-01 00:27:00,
2013-01-31 18:32:00,4.6,-6.5,29.18,WSW,256,5.8,8.3,59,0.00,,BKN023,0.00,VWS V14.01,2013-02-01 00:32:00,
2013-01-31 18:37:00,4.6,-6.5,29.18,WNW,283,8.7,12.8,59,0.00,,BKN023,0.00,VWS V14.01,2013-02-01 00:37:00,
2013-01-31 18:42:00,4.5,-6.7,29.18,WSW,255,8.3,12.8,59,0.00,,BKN023,0.00,VWS V14.01,2013-02-01 00:42:00,
2013-01-31 18:48:00,4.5,-6.7,29.18,West,274,12.8,13.2,59,0.00,,BKN023,0.00,VWS V14.01,2013-02-01 00:48:00,
2013-01-31 18:53:00,4.5,-6.7,29.18,WSW,247,8.1,8.1,59,0.00,,BKN023,0.00,VWS V14.01,2013-02-01 00:53:00,
2013-01-31 18:58:00,4.3,-6.9,29.18,West,269,8.1,13.2,59,0.00,,BKN023,0.00,VWS V14.01,2013-02-01 00:58:00,
2013-01-31 19:03:00,4.3,-6.9,29.18,WSW,257,8.1,10.5,59,0.00,,BKN023,0.00,VWS V14.01,2013-02-01 01:03:00,
2013-01-31 19:08:00,4.1,-7.0,29.18,WSW,241,7.2,8.3,59,0.00,,BKN023,0.00,VWS V14.01,2013-02-01 01:08:00,
2013-01-31 19:13:00,4.1,-7.0,29.18,WSW,247,3.6,7.6,59,0.00,,BKN023,0.00,VWS V14.01,2013-02-01 01:13:00,
2013-01-31 19:18:00,4.1,-7.0,29.21,SW,229,3.1,13.2,59,0.00,,BKN023,0.00,VWS V14.01,2013-02-01 01:18:00,
2013-01-31 19:23:00,4.1,-7.0,29.21,WSW,242,5.8,9.6,59,0.00,,BKN023,0.00,VWS V14.01,2013-02-01 01:23:00,
2013-01-31 19:28:00,4.1,-7.0,29.21,SW,224,10.1,10.1,59,0.00,,BKN023,0.00,VWS V14.01,2013-02-01 01:28:00,
2013-01-31 19:33:00,4.1,-7.0,29.21,WSW,240,7.2,11.0,59,0.00,,BKN023,0.00,VWS V14.01,2013-02-01 01:33:00,
2013-01-31 19:38:00,4.1,-7.0,29.21,WSW,254,7.6,11.4,59,0.00,,BKN023,0.00,VWS V14.01,2013-02-01 01:38:00,
2013-01-31 19:43:00,3.9,-7.2,29.21,WSW,248,3.1,9.6,59,0.00,,BKN023,0.00,VWS V14.01,2013-02-01 01:43:00,
2013-01-31 19:48:00,3.9,-7.2,29.21,WSW,254,8.3,10.5,59,0.00,,BKN023,0.00,VWS V14.01,2013-02-01 01:48:00,
2013-01-31 19:53:00,3.7,-7.4,29.21,WSW,254,8.3,8.3,59,0.00,,BKN023,0.00,VWS V14.01,2013-02-01 01:53:00,
2013-01-31 19:58:00,3.7,-7.4,29.21,WSW,253,11.9,11.9,59,0.00,,BKN023,0.00,VWS V14.01,2013-02-01 01:58:00,
2013-01-31 20:03:00,3.7,-7.4,29.21,SW,235,10.1,11.0,59,0.00,,FEW022,0.00,VWS V14.01,2013-02-01 02:03:00,
2013-01-31 20:08:00,3.7,-7.4,29.21,WSW,242,11.0,11.0,59,0.00,,FEW022,0.00,VWS V14.01,2013-02-01 02:08:00,
2013-01-31 20:13:00,3.7,-7.4,29.21,SW,226,6.3,11.0,59,0.00,,FEW022,0.00,VWS V14.01,2013-02-01 02:13:00,
2013-01-31 20:18:00,3.6,-7.6,29.21,SW,235,11.4,11.4,59,0.00,,FEW022,0.00,VWS V14.01,2013-02-01 02:18:00,
2013-01-31 20:23:00,3.6,-7.6,29.21,West,272,6.3,7.6,59,0.00,,FEW022,0.00,VWS V14.01,2013-02-01 02:23:00,
2013-01-31 20:28:00,3.2,-7.9,29.23,West,266,5.8,8.1,59,0.00,,FEW022,0.00,VWS V14.01,2013-02-01 02:28:00,
2013-01-31 20:33:00,3.2,-7.9,29.23,WSW,254,7.6,7.6,59,0.00,,FEW022,0.00,VWS V14.01,2013-02-01 02:33:00,
2013-01-31 20:38:00,3.2,-7.9,29.23,WSW,243,13.2,15.4,59,0.00,,FEW022,0.00,VWS V14.01,2013-02-01 02:38:00,
2013-01-31 20:43:00,3.2,-7.9,29.23,West,259,5.4,5.4,59,0.00,,FEW022,0.00,VWS V14.01,2013-02-01 02:43:00,
2013-01-31 20:48:00,3.2,-7.9,29.23,WSW,245,10.1,13.2,59,0.00,,FEW022,0.00,VWS V14.01,2013-02-01 02:48:00,
2013-01-31 20:53:00,3.0,-8.1,29.23,WSW,250,8.7,8.7,59,0.00,,FEW022,0.00,VWS V14.01,2013-02-01 02:53:00,
2013-01-31 20:58:00,2.8,-8.2,29.23,WSW,252,8.7,8.7,59,0.00,,FEW022,0.00,VWS V14.01,2013-02-01 02:58:00,
2013-01-31 21:03:00,2.8,-8.2,29.23,WSW,246,2.7,7.6,59,0.00,,FEW022,0.00,VWS V14.01,2013-02-01 03:03:00,
2013-01-31 21:08:00,2.8,-8.2,29.23,WSW,254,8.7,8.7,59,0.00,,FEW022,0.00,VWS V14.01,2013-02-01 03:08:00,
2013-01-31 21:13:00,2.7,-8.4,29.23,WSW,255,8.3,12.8,59,0.00,,FEW022,0.00,VWS V14.01,2013-02-01 03:13:00,
2013-01-31 21:18:00,2.5,-8.6,29.23,WSW,248,4.0,7.2,59,0.00,,FEW022,0.00,VWS V14.01,2013-02-01 03:18:00,
2013-01-31 21:23:00,2.5,-8.6,29.23,SW,233,10.5,12.8,59,0.00,,FEW022,0.00,VWS V14.01,2013-02-01 03:23:00,
2013-01-31 21:29:00,2.5,-8.6,29.23,WSW,250,10.1,10.1,59,0.00,,FEW022,0.00,VWS V14.01,2013-02-01 03:29:00,
2013-01-31 21:34:00,2.3,-8.7,29.23,WSW,255,11.0,11.0,59,0.00,,FEW022,0.00,VWS V14.01,2013-02-01 03:34:00,
2013-01-31 21:39:00,2.1,-8.9,29.23,WSW,252,15.0,15.0,59,0.00,,FEW022,0.00,VWS V14.01,2013-02-01 03:39:00,
2013-01-31 21:44:00,1.9,-9.1,29.26,WSW,243,8.3,8.3,59,0.00,,FEW022,0.00,VWS V14.01,2013-02-01 03:44:00,
2013-01-31 21:49:00,1.9,-9.1,29.26,WSW,254,2.7,2.7,59,0.00,,FEW022,0.00,VWS V14.01,2013-02-01 03:49:00,
2013-01-31 21:54:00,1.9,-9.1,29.26,WSW,242,3.1,3.1,59,0.00,,FEW022,0.00,VWS V14.01,2013-02-01 03:54:00,
2013-01-31 21:59:00,1.9,-9.1,29.26,WSW,255,3.6,5.8,59,0.00,,FEW022,0.00,VWS V14.01,2013-02-01 03:59:00,
2013-01-31 22:04:00,1.9,-9.1,29.26,SW,226,7.6,7.6,59,0.00,,FEW020,0.00,VWS V14.01,2013-02-01 04:04:00,
2013-01-31 22:09:00,1.9,-9.1,29.26,WSW,255,3.6,5.8,59,0.00,,FEW020,0.00,VWS V14.01,2013-02-01 04:09:00,
2013-01-31 22:14:00,1.9,-9.1,29.23,West,265,6.3,6.3,59,0.00,,FEW020,0.00,VWS V14.01,2013-02-01 04:14:00,
2013-01-31 22:19:00,1.6,-9.4,29.23,WSW,254,8.7,8.7,59,0.00,,FEW020,0.00,VWS V14.01,2013-02-01 04:19:00,
2013-01-31 22:24:00,1.6,-9.4,29.23,West,263,4.9,11.0,59,0.00,,FEW020,0.00,VWS V14.01,2013-02-01 04:24:00,
2013-01-31 22:30:00,1.4,-9.6,29.26,West,259,2.7,4.0,59,0.00,,FEW020,0.00,VWS V14.01,2013-02-01 04:30:00,
2013-01-31 22:35:00,1.4,-9.6,29.26,WSW,258,6.7,6.7,59,0.00,,FEW020,0.00,VWS V14.01,2013-02-01 04:35:00,
2013-01-31 22:40:00,1.2,-9.8,29.26,West,260,11.0,12.3,59,0.00,,FEW020,0.00,VWS V14.01,2013-02-01 04:40:00,
2013-01-31 22:45:00,1.0,-9.9,29.23,WNW,294,4.0,4.0,59,0.00,,FEW020,0.00,VWS V14.01,2013-02-01 04:45:00,
2013-01-31 22:50:00,0.9,-10.1,29.23,West,271,7.6,7.6,59,0.00,,FEW020,0.00,VWS V14.01,2013-02-01 04:50:00,
2013-01-31 22:55:00,0.7,-10.3,29.23,West,265,4.0,4.0,59,0.00,,FEW020,0.00,VWS V14.01,2013-02-01 04:55:00,
2013-01-31 23:00:00,0.7,-10.3,29.23,WSW,255,4.0,4.0,59,0.00,,FEW020,0.00,VWS V14.01,2013-02-01 05:00:00,
2013-01-31 23:01:00,0.7,-10.3,29.23,West,274,4.0,4.0,59,0.00,,FEW020,0.00,VWS V14.01,2013-02-01 05:01:00,
2013-01-31 23:06:00,0.7,-10.3,29.23,West,270,3.1,3.6,59,0.00,,FEW020,0.00,VWS V14.01,2013-02-01 05:06:00,
2013-01-31 23:11:00,0.7,-10.3,29.23,West,268,7.6,7.6,59,0.00,,FEW020,0.00,VWS V14.01,2013-02-01 05:11:00,
2013-01-31 23:16:00,0.5,-10.4,29.26,WSW,246,0.0,3.6,59,0.00,,FEW020,0.00,VWS V14.01,2013-02-01 05:16:00,
2013-01-31 23:22:00,0.5,-10.4,29.26,West,277,7.6,7.6,59,0.00,,FEW020,0.00,VWS V14.01,2013-02-01 05:22:00,
2013-01-31 23:27:00,0.7,-10.3,29.26,WSW,257,2.2,2.2,59,0.00,,FEW020,0.00,VWS V14.01,2013-02-01 05:27:00,
2013-01-31 23:32:00,0.5,-10.4,29.26,West,281,5.4,5.4,59,0.00,,FEW020,0.00,VWS V14.01,2013-02-01 05:32:00,
2013-01-31 23:37:00,0.5,-10.4,29.26,WSW,245,0.0,0.0,59,0.00,,FEW020,0.00,VWS V14.01,2013-02-01 05:37:00,
2013-01-31 23:42:00,0.3,-10.6,29.26,SW,231,4.9,4.9,59,0.00,,FEW020,0.00,VWS V14.01,2013-02-01 05:42:00,
2013-01-31 23:47:00,0.3,-10.6,29.26,WSW,253,0.0,0.0,59,0.00,,FEW020,0.00,VWS V14.01,2013-02-01 05:47:00,
2013-01-31 23:52:00,0.3,-10.6,29.26,WSW,248,2.7,5.8,59,0.00,,FEW020,0.00,VWS V14.01,2013-02-01 05:52:00,
2013-01-31 23:57:00,0.3,-10.6,29.26,WSW,252,5.8,7.6,59,0.00,,FEW020,0.00,VWS V14.01,2013-02-01 05:57:00,